createdAt,value
2023-05-12T00:08:16.818Z,24.50
2023-05-12T00:23:19.163Z,23.77
2023-05-12T00:38:21.677Z,23.63
2023-05-12T00:53:24.756Z,22.17
2023-05-12T01:08:28.063Z,18.87
2023-05-12T01:23:36.223Z,15.77
2023-05-12T01:38:39.134Z,13.60
2023-05-12T01:53:43.180Z,11.33
2023-05-12T02:08:48.434Z,8.57
2023-05-12T02:23:52.014Z,8.97
2023-05-12T02:38:54.427Z,7.87
2023-05-12T02:53:57.212Z,8.10
2023-05-12T03:09:00.003Z,9.57
2023-05-12T03:24:02.478Z,8.60
2023-05-12T03:39:08.715Z,10.97
2023-05-12T03:54:16.036Z,6.60
2023-05-12T04:09:18.419Z,5.20
2023-05-12T04:24:20.932Z,3.73
2023-05-12T04:39:23.579Z,3.27
2023-05-12T04:54:29.353Z,3.83
2023-05-12T05:09:32.608Z,4.20
2023-05-12T05:24:36.002Z,6.17
2023-05-12T05:39:38.628Z,8.63
2023-05-12T05:54:41.152Z,7.77
2023-05-12T06:09:44.111Z,7.07
2023-05-12T06:24:47.018Z,4.97
2023-05-12T06:40:03.705Z,4.07
2023-05-12T06:55:07.010Z,4.10
2023-05-12T07:10:09.587Z,3.87
2023-05-12T07:25:18.184Z,4.23
2023-05-12T07:40:25.237Z,4.00
2023-05-12T07:55:29.065Z,4.27
2023-05-12T08:10:41.250Z,3.47
2023-05-12T08:25:48.007Z,2.93
2023-05-12T08:41:11.414Z,2.07
2023-05-12T09:11:28.076Z,2.40
2023-05-12T09:26:33.370Z,1.47
2023-05-12T09:41:37.923Z,2.40
2023-05-12T09:56:41.360Z,2.30
2023-05-12T10:11:45.064Z,2.17
2023-05-12T10:26:47.475Z,1.87
2023-05-12T10:42:00.704Z,1.40
2023-05-12T10:57:03.436Z,2.20
2023-05-12T11:12:20.395Z,2.53
2023-05-12T11:27:24.316Z,2.13
2023-05-12T11:42:26.862Z,3.07
2023-05-12T11:57:34.965Z,1.97
2023-05-12T12:12:37.373Z,2.23
2023-05-12T12:27:39.884Z,2.70
2023-05-12T12:42:42.324Z,2.50
2023-05-12T12:57:44.804Z,3.43
2023-05-12T13:12:47.433Z,3.77
2023-05-12T13:27:49.784Z,3.40
2023-05-12T13:42:53.104Z,3.60
2023-05-12T13:57:56.930Z,3.00
2023-05-12T14:13:07.953Z,3.33
2023-05-12T14:28:12.528Z,4.27
2023-05-12T14:43:23.224Z,3.87
2023-05-12T14:58:28.174Z,4.33
2023-05-12T15:13:31.535Z,6.13
2023-05-12T15:28:34.539Z,4.70
2023-05-12T15:43:38.974Z,5.37
2023-05-12T15:58:41.772Z,4.50
2023-05-12T16:13:44.628Z,5.30
2023-05-12T16:28:47.733Z,4.33
2023-05-12T16:43:54.894Z,9.50
2023-05-12T16:59:02.288Z,23.63
2023-05-12T17:14:16.779Z,6.67
2023-05-12T17:29:22.088Z,10.73
2023-05-12T17:44:24.845Z,3.37
2023-05-12T17:59:27.826Z,3.57
2023-05-12T18:14:30.563Z,3.23
2023-05-12T18:29:33.025Z,5.17
2023-05-12T18:44:35.448Z,3.83
2023-05-12T18:59:38.367Z,2.87
2023-05-12T19:14:43.091Z,5.27
2023-05-12T19:29:47.199Z,3.93
2023-05-12T19:44:49.782Z,3.13
2023-05-12T19:59:53.529Z,4.07
2023-05-12T20:14:56.912Z,3.80
2023-05-12T20:29:59.589Z,7.03
2023-05-12T20:45:02.812Z,5.60
2023-05-12T21:00:07.421Z,5.00
2023-05-12T21:15:10.662Z,3.93
2023-05-12T21:30:13.271Z,5.03
2023-05-12T21:45:15.915Z,5.50
2023-05-12T22:15:22.403Z,5.40
2023-05-12T22:30:24.725Z,6.00
2023-05-12T22:45:27.104Z,5.90
2023-05-12T23:00:29.463Z,6.53
2023-05-12T23:15:31.951Z,7.07
2023-05-12T23:30:34.479Z,7.83
2023-05-12T23:45:36.979Z,9.27
